sensor_id;sensor_type;location;lat;lon;timestamp;temperature;humidity
8565;DHT22;4320;51.498;6.556;2022-11-23T00:01:17;9.60;1.00
8565;DHT22;4320;51.498;6.556;2022-11-23T00:03:44;9.70;1.00
8565;DHT22;4320;51.498;6.556;2022-11-23T00:06:11;9.70;1.00
8565;DHT22;4320;51.498;6.556;2022-11-23T00:08:36;9.70;1.00
8565;DHT22;4320;51.498;6.556;2022-11-23T00:11:02;9.70;1.00
8565;DHT22;4320;51.498;6.556;2022-11-23T00:13:28;9.70;1.00
8565;DHT22;4320;51.498;6.556;2022-11-23T00:15:54;9.70;1.00
8565;DHT22;4320;51.498;6.556;2022-11-23T00:18:20;9.60;1.00
8565;DHT22;4320;51.498;6.556;2022-11-23T00:20:46;9.70;1.00
8565;DHT22;4320;51.498;6.556;2022-11-23T00:23:12;9.70;1.00
8565;DHT22;4320;51.498;6.556;2022-11-23T00:25:37;9.70;1.00
8565;DHT22;4320;51.498;6.556;2022-11-23T00:28:03;9.60;1.00
8565;DHT22;4320;51.498;6.556;2022-11-23T00:30:29;9.70;1.00
8565;DHT22;4320;51.498;6.556;2022-11-23T00:32:55;9.70;1.00
8565;DHT22;4320;51.498;6.556;2022-11-23T00:35:21;9.70;1.00
8565;DHT22;4320;51.498;6.556;2022-11-23T00:37:47;9.70;1.00
8565;DHT22;4320;51.498;6.556;2022-11-23T00:40:13;9.70;1.00
8565;DHT22;4320;51.498;6.556;2022-11-23T00:42:38;9.70;1.00
8565;DHT22;4320;51.498;6.556;2022-11-23T00:45:04;9.70;1.00
8565;DHT22;4320;51.498;6.556;2022-11-23T00:47:30;9.70;1.00
8565;DHT22;4320;51.498;6.556;2022-11-23T00:49:56;9.80;1.00
8565;DHT22;4320;51.498;6.556;2022-11-23T00:52:22;9.70;1.00
8565;DHT22;4320;51.498;6.556;2022-11-23T00:54:47;9.80;1.00
8565;DHT22;4320;51.498;6.556;2022-11-23T00:57:13;9.80;1.00
8565;DHT22;4320;51.498;6.556;2022-11-23T00:59:39;9.80;1.00
8565;DHT22;4320;51.498;6.556;2022-11-23T01:02:04;9.80;1.00
8565;DHT22;4320;51.498;6.556;2022-11-23T01:04:30;9.80;1.00
8565;DHT22;4320;51.498;6.556;2022-11-23T01:06:55;9.80;1.00
8565;DHT22;4320;51.498;6.556;2022-11-23T01:09:22;9.80;1.00
8565;DHT22;4320;51.498;6.556;2022-11-23T01:11:52;9.80;1.00
8565;DHT22;4320;51.498;6.556;2022-11-23T01:14:18;9.80;1.00
8565;DHT22;4320;51.498;6.556;2022-11-23T01:16:43;9.80;1.00
8565;DHT22;4320;51.498;6.556;2022-11-23T01:19:17;9.80;1.00
8565;DHT22;4320;51.498;6.556;2022-11-23T01:21:43;9.80;1.00
8565;DHT22;4320;51.498;6.556;2022-11-23T01:24:15;9.80;1.00
8565;DHT22;4320;51.498;6.556;2022-11-23T01:26:41;9.80;1.00
8565;DHT22;4320;51.498;6.556;2022-11-23T01:29:08;9.90;1.00
8565;DHT22;4320;51.498;6.556;2022-11-23T01:31:34;9.80;1.00
8565;DHT22;4320;51.498;6.556;2022-11-23T01:34:03;9.80;1.00
8565;DHT22;4320;51.498;6.556;2022-11-23T01:36:33;9.80;1.00
8565;DHT22;4320;51.498;6.556;2022-11-23T01:39:00;9.80;1.00
8565;DHT22;4320;51.498;6.556;2022-11-23T01:41:32;9.80;1.00
8565;DHT22;4320;51.498;6.556;2022-11-23T01:43:58;9.80;1.00
8565;DHT22;4320;51.498;6.556;2022-11-23T01:46:24;9.80;1.00
8565;DHT22;4320;51.498;6.556;2022-11-23T01:48:59;9.80;1.00
8565;DHT22;4320;51.498;6.556;2022-11-23T01:51:45;9.80;1.00
8565;DHT22;4320;51.498;6.556;2022-11-23T01:54:17;9.80;1.00
8565;DHT22;4320;51.498;6.556;2022-11-23T01:56:49;9.80;1.00
8565;DHT22;4320;51.498;6.556;2022-11-23T01:59:16;9.90;1.00
8565;DHT22;4320;51.498;6.556;2022-11-23T02:01:43;9.90;1.00
8565;DHT22;4320;51.498;6.556;2022-11-23T02:04:12;9.90;1.00
8565;DHT22;4320;51.498;6.556;2022-11-23T02:06:39;9.90;1.00
8565;DHT22;4320;51.498;6.556;2022-11-23T02:09:06;9.90;1.00
8565;DHT22;4320;51.498;6.556;2022-11-23T02:11:32;9.90;1.00
8565;DHT22;4320;51.498;6.556;2022-11-23T02:13:57;9.90;1.00
8565;DHT22;4320;51.498;6.556;2022-11-23T02:16:24;9.90;1.00
8565;DHT22;4320;51.498;6.556;2022-11-23T02:18:51;9.90;1.00
8565;DHT22;4320;51.498;6.556;2022-11-23T02:21:17;9.90;1.00
8565;DHT22;4320;51.498;6.556;2022-11-23T02:23:45;9.90;1.00
8565;DHT22;4320;51.498;6.556;2022-11-23T02:26:25;9.90;1.00
8565;DHT22;4320;51.498;6.556;2022-11-23T02:31:34;10.00;1.00
8565;DHT22;4320;51.498;6.556;2022-11-23T02:34:00;10.00;1.00
8565;DHT22;4320;51.498;6.556;2022-11-23T02:39:02;10.00;1.00
8565;DHT22;4320;51.498;6.556;2022-11-23T02:41:42;10.00;1.00
8565;DHT22;4320;51.498;6.556;2022-11-23T02:44:24;10.00;1.00
8565;DHT22;4320;51.498;6.556;2022-11-23T02:46:50;10.10;1.00
8565;DHT22;4320;51.498;6.556;2022-11-23T02:49:16;10.10;1.00
8565;DHT22;4320;51.498;6.556;2022-11-23T02:51:42;10.10;1.00
8565;DHT22;4320;51.498;6.556;2022-11-23T02:54:08;10.00;1.00
8565;DHT22;4320;51.498;6.556;2022-11-23T02:56:34;10.10;1.00
8565;DHT22;4320;51.498;6.556;2022-11-23T02:58:59;10.10;1.00
8565;DHT22;4320;51.498;6.556;2022-11-23T03:01:25;10.10;1.00
8565;DHT22;4320;51.498;6.556;2022-11-23T03:03:51;10.10;1.00
8565;DHT22;4320;51.498;6.556;2022-11-23T03:06:17;10.10;1.00
8565;DHT22;4320;51.498;6.556;2022-11-23T03:08:42;10.10;1.00
8565;DHT22;4320;51.498;6.556;2022-11-23T03:11:08;10.10;1.00
8565;DHT22;4320;51.498;6.556;2022-11-23T03:13:34;10.10;1.00
8565;DHT22;4320;51.498;6.556;2022-11-23T03:15:59;10.10;1.00
8565;DHT22;4320;51.498;6.556;2022-11-23T03:18:25;10.10;1.00
8565;DHT22;4320;51.498;6.556;2022-11-23T03:20:50;10.10;1.00
8565;DHT22;4320;51.498;6.556;2022-11-23T03:23:16;10.10;1.00
8565;DHT22;4320;51.498;6.556;2022-11-23T03:25:42;10.10;1.00
8565;DHT22;4320;51.498;6.556;2022-11-23T03:28:07;10.10;1.00
8565;DHT22;4320;51.498;6.556;2022-11-23T03:30:33;10.00;1.00
8565;DHT22;4320;51.498;6.556;2022-11-23T03:32:59;10.00;1.00
8565;DHT22;4320;51.498;6.556;2022-11-23T03:35:24;10.00;1.00
8565;DHT22;4320;51.498;6.556;2022-11-23T03:37:50;10.00;1.00
8565;DHT22;4320;51.498;6.556;2022-11-23T03:40:15;10.00;1.00
8565;DHT22;4320;51.498;6.556;2022-11-23T03:42:41;10.10;1.00
8565;DHT22;4320;51.498;6.556;2022-11-23T03:45:08;10.10;1.00
8565;DHT22;4320;51.498;6.556;2022-11-23T03:47:33;10.10;1.00
8565;DHT22;4320;51.498;6.556;2022-11-23T03:49:59;10.10;1.00
8565;DHT22;4320;51.498;6.556;2022-11-23T03:52:25;10.10;1.00
8565;DHT22;4320;51.498;6.556;2022-11-23T03:54:50;10.10;1.00
8565;DHT22;4320;51.498;6.556;2022-11-23T03:57:16;10.10;1.00
8565;DHT22;4320;51.498;6.556;2022-11-23T03:59:42;10.10;1.00
8565;DHT22;4320;51.498;6.556;2022-11-23T04:02:07;10.10;1.00
8565;DHT22;4320;51.498;6.556;2022-11-23T04:04:33;10.10;1.00
8565;DHT22;4320;51.498;6.556;2022-11-23T04:06:59;10.10;1.00
8565;DHT22;4320;51.498;6.556;2022-11-23T04:09:25;10.10;1.00
8565;DHT22;4320;51.498;6.556;2022-11-23T04:11:51;10.10;1.00
8565;DHT22;4320;51.498;6.556;2022-11-23T04:14:16;10.10;1.00
8565;DHT22;4320;51.498;6.556;2022-11-23T04:16:42;10.10;1.00
8565;DHT22;4320;51.498;6.556;2022-11-23T04:19:08;10.10;1.00
8565;DHT22;4320;51.498;6.556;2022-11-23T04:21:33;10.10;1.00
8565;DHT22;4320;51.498;6.556;2022-11-23T04:23:59;10.10;1.00
8565;DHT22;4320;51.498;6.556;2022-11-23T04:26:25;10.10;1.00
8565;DHT22;4320;51.498;6.556;2022-11-23T04:28:50;10.10;1.00
8565;DHT22;4320;51.498;6.556;2022-11-23T04:31:16;10.10;1.00
8565;DHT22;4320;51.498;6.556;2022-11-23T04:33:42;10.00;1.00
8565;DHT22;4320;51.498;6.556;2022-11-23T04:36:07;10.00;1.00
8565;DHT22;4320;51.498;6.556;2022-11-23T04:38:33;10.10;1.00
8565;DHT22;4320;51.498;6.556;2022-11-23T04:40:59;10.10;1.00
8565;DHT22;4320;51.498;6.556;2022-11-23T04:43:25;10.10;1.00
8565;DHT22;4320;51.498;6.556;2022-11-23T04:45:50;10.10;1.00
8565;DHT22;4320;51.498;6.556;2022-11-23T04:48:16;10.10;1.00
8565;DHT22;4320;51.498;6.556;2022-11-23T04:50:41;10.00;1.00
8565;DHT22;4320;51.498;6.556;2022-11-23T04:53:07;10.10;1.00
8565;DHT22;4320;51.498;6.556;2022-11-23T04:55:33;10.00;1.00
8565;DHT22;4320;51.498;6.556;2022-11-23T04:57:59;10.00;1.00
8565;DHT22;4320;51.498;6.556;2022-11-23T05:00:25;10.10;1.00
8565;DHT22;4320;51.498;6.556;2022-11-23T05:02:51;10.10;1.00
8565;DHT22;4320;51.498;6.556;2022-11-23T05:05:17;10.10;1.00
8565;DHT22;4320;51.498;6.556;2022-11-23T05:07:42;10.10;1.00
8565;DHT22;4320;51.498;6.556;2022-11-23T05:10:08;10.10;99.90
8565;DHT22;4320;51.498;6.556;2022-11-23T05:12:34;10.10;99.90
8565;DHT22;4320;51.498;6.556;2022-11-23T05:15:01;10.10;99.90
8565;DHT22;4320;51.498;6.556;2022-11-23T05:17:27;10.10;99.90
8565;DHT22;4320;51.498;6.556;2022-11-23T05:19:53;10.10;99.90
8565;DHT22;4320;51.498;6.556;2022-11-23T05:22:18;10.10;99.90
8565;DHT22;4320;51.498;6.556;2022-11-23T05:24:44;10.10;99.90
8565;DHT22;4320;51.498;6.556;2022-11-23T05:27:10;10.10;99.90
8565;DHT22;4320;51.498;6.556;2022-11-23T05:29:36;10.10;99.90
8565;DHT22;4320;51.498;6.556;2022-11-23T05:32:02;10.10;99.90
8565;DHT22;4320;51.498;6.556;2022-11-23T05:34:27;10.10;99.90
8565;DHT22;4320;51.498;6.556;2022-11-23T05:36:53;10.10;99.90
8565;DHT22;4320;51.498;6.556;2022-11-23T05:39:18;10.10;99.90
8565;DHT22;4320;51.498;6.556;2022-11-23T05:41:44;10.10;99.90
8565;DHT22;4320;51.498;6.556;2022-11-23T05:44:10;10.10;99.90
8565;DHT22;4320;51.498;6.556;2022-11-23T05:46:35;10.10;99.90
8565;DHT22;4320;51.498;6.556;2022-11-23T05:49:01;10.10;99.90
8565;DHT22;4320;51.498;6.556;2022-11-23T05:51:26;10.10;99.90
8565;DHT22;4320;51.498;6.556;2022-11-23T05:53:52;10.00;99.90
8565;DHT22;4320;51.498;6.556;2022-11-23T05:56:18;10.00;99.90
8565;DHT22;4320;51.498;6.556;2022-11-23T05:58:43;10.00;99.90
8565;DHT22;4320;51.498;6.556;2022-11-23T06:01:09;10.00;99.90
8565;DHT22;4320;51.498;6.556;2022-11-23T06:03:35;10.00;99.90
8565;DHT22;4320;51.498;6.556;2022-11-23T06:06:00;10.00;99.90
8565;DHT22;4320;51.498;6.556;2022-11-23T06:08:26;10.00;99.90
8565;DHT22;4320;51.498;6.556;2022-11-23T06:10:51;10.00;99.90
8565;DHT22;4320;51.498;6.556;2022-11-23T06:13:17;10.00;99.90
8565;DHT22;4320;51.498;6.556;2022-11-23T06:15:42;10.00;99.90
8565;DHT22;4320;51.498;6.556;2022-11-23T06:18:08;10.10;99.90
8565;DHT22;4320;51.498;6.556;2022-11-23T06:20:34;10.10;99.90
8565;DHT22;4320;51.498;6.556;2022-11-23T06:23:00;10.10;99.90
8565;DHT22;4320;51.498;6.556;2022-11-23T06:25:25;10.10;99.90
8565;DHT22;4320;51.498;6.556;2022-11-23T06:27:55;10.10;99.90
8565;DHT22;4320;51.498;6.556;2022-11-23T06:30:22;10.10;99.90
8565;DHT22;4320;51.498;6.556;2022-11-23T06:32:47;10.10;99.90
8565;DHT22;4320;51.498;6.556;2022-11-23T06:35:13;10.10;99.90
8565;DHT22;4320;51.498;6.556;2022-11-23T06:37:39;10.10;99.90
8565;DHT22;4320;51.498;6.556;2022-11-23T06:40:04;10.10;99.90
8565;DHT22;4320;51.498;6.556;2022-11-23T06:42:30;10.10;99.90
8565;DHT22;4320;51.498;6.556;2022-11-23T06:44:56;10.10;99.90
8565;DHT22;4320;51.498;6.556;2022-11-23T06:47:21;10.10;99.90
8565;DHT22;4320;51.498;6.556;2022-11-23T06:49:47;10.10;99.90
8565;DHT22;4320;51.498;6.556;2022-11-23T06:52:12;10.00;99.90
8565;DHT22;4320;51.498;6.556;2022-11-23T06:54:38;10.00;99.90
8565;DHT22;4320;51.498;6.556;2022-11-23T06:57:07;10.00;99.90
8565;DHT22;4320;51.498;6.556;2022-11-23T06:59:32;10.00;99.90
8565;DHT22;4320;51.498;6.556;2022-11-23T07:01:58;10.00;99.90
8565;DHT22;4320;51.498;6.556;2022-11-23T07:04:23;9.90;99.90
8565;DHT22;4320;51.498;6.556;2022-11-23T07:06:49;9.90;99.90
8565;DHT22;4320;51.498;6.556;2022-11-23T07:09:15;9.90;99.90
8565;DHT22;4320;51.498;6.556;2022-11-23T07:11:41;10.00;99.90
8565;DHT22;4320;51.498;6.556;2022-11-23T07:14:06;9.90;99.90
8565;DHT22;4320;51.498;6.556;2022-11-23T07:16:32;9.90;99.90
8565;DHT22;4320;51.498;6.556;2022-11-23T07:18:58;9.90;99.90
8565;DHT22;4320;51.498;6.556;2022-11-23T07:21:23;9.90;99.90
8565;DHT22;4320;51.498;6.556;2022-11-23T07:23:49;9.90;99.90
8565;DHT22;4320;51.498;6.556;2022-11-23T07:26:15;9.90;99.90
8565;DHT22;4320;51.498;6.556;2022-11-23T07:28:40;9.90;99.90
8565;DHT22;4320;51.498;6.556;2022-11-23T07:31:06;9.90;99.90
8565;DHT22;4320;51.498;6.556;2022-11-23T07:33:32;9.90;99.90
8565;DHT22;4320;51.498;6.556;2022-11-23T07:36:01;10.00;99.90
8565;DHT22;4320;51.498;6.556;2022-11-23T07:38:30;10.00;99.90
8565;DHT22;4320;51.498;6.556;2022-11-23T07:40:55;10.00;99.90
8565;DHT22;4320;51.498;6.556;2022-11-23T07:43:23;10.00;99.90
8565;DHT22;4320;51.498;6.556;2022-11-23T07:45:51;10.00;99.90
8565;DHT22;4320;51.498;6.556;2022-11-23T07:48:19;10.00;99.90
8565;DHT22;4320;51.498;6.556;2022-11-23T07:50:44;10.00;99.90
8565;DHT22;4320;51.498;6.556;2022-11-23T07:53:10;9.90;99.90
8565;DHT22;4320;51.498;6.556;2022-11-23T07:55:35;10.00;99.90
8565;DHT22;4320;51.498;6.556;2022-11-23T07:58:01;9.90;99.90
8565;DHT22;4320;51.498;6.556;2022-11-23T08:00:28;10.00;99.90
8565;DHT22;4320;51.498;6.556;2022-11-23T08:02:53;10.00;99.90
8565;DHT22;4320;51.498;6.556;2022-11-23T08:05:19;10.00;99.90
8565;DHT22;4320;51.498;6.556;2022-11-23T08:07:45;10.00;99.90
8565;DHT22;4320;51.498;6.556;2022-11-23T08:10:12;10.00;99.90
8565;DHT22;4320;51.498;6.556;2022-11-23T08:12:38;10.10;99.90
8565;DHT22;4320;51.498;6.556;2022-11-23T08:15:04;10.10;99.90
8565;DHT22;4320;51.498;6.556;2022-11-23T08:17:30;10.10;99.90
8565;DHT22;4320;51.498;6.556;2022-11-23T08:19:56;10.20;99.90
8565;DHT22;4320;51.498;6.556;2022-11-23T08:22:21;10.30;99.90
8565;DHT22;4320;51.498;6.556;2022-11-23T08:24:47;10.30;99.90
8565;DHT22;4320;51.498;6.556;2022-11-23T08:27:13;10.30;99.90
8565;DHT22;4320;51.498;6.556;2022-11-23T08:29:39;10.30;99.90
8565;DHT22;4320;51.498;6.556;2022-11-23T08:32:04;10.40;99.90
8565;DHT22;4320;51.498;6.556;2022-11-23T08:34:30;10.40;99.90
8565;DHT22;4320;51.498;6.556;2022-11-23T08:36:56;10.40;99.90
8565;DHT22;4320;51.498;6.556;2022-11-23T08:39:21;10.40;99.90
8565;DHT22;4320;51.498;6.556;2022-11-23T08:41:47;10.40;99.90
8565;DHT22;4320;51.498;6.556;2022-11-23T08:44:13;10.40;99.90
8565;DHT22;4320;51.498;6.556;2022-11-23T08:46:38;10.40;99.90
8565;DHT22;4320;51.498;6.556;2022-11-23T08:49:05;10.40;99.90
8565;DHT22;4320;51.498;6.556;2022-11-23T08:51:31;10.40;99.90
8565;DHT22;4320;51.498;6.556;2022-11-23T08:53:57;10.40;99.90
8565;DHT22;4320;51.498;6.556;2022-11-23T08:56:23;10.40;99.90
8565;DHT22;4320;51.498;6.556;2022-11-23T08:58:49;10.40;99.90
8565;DHT22;4320;51.498;6.556;2022-11-23T09:01:15;10.50;99.90
8565;DHT22;4320;51.498;6.556;2022-11-23T09:03:42;10.50;99.90
8565;DHT22;4320;51.498;6.556;2022-11-23T09:06:08;10.50;99.90
8565;DHT22;4320;51.498;6.556;2022-11-23T09:08:34;10.50;99.90
8565;DHT22;4320;51.498;6.556;2022-11-23T09:11:08;10.60;99.90
8565;DHT22;4320;51.498;6.556;2022-11-23T09:13:35;10.60;99.90
8565;DHT22;4320;51.498;6.556;2022-11-23T09:16:02;10.60;99.90
8565;DHT22;4320;51.498;6.556;2022-11-23T09:18:29;10.60;99.90
8565;DHT22;4320;51.498;6.556;2022-11-23T09:20:55;10.70;99.90
8565;DHT22;4320;51.498;6.556;2022-11-23T09:23:21;10.70;99.90
8565;DHT22;4320;51.498;6.556;2022-11-23T09:25:47;10.70;99.90
8565;DHT22;4320;51.498;6.556;2022-11-23T09:28:15;10.80;99.90
8565;DHT22;4320;51.498;6.556;2022-11-23T09:30:41;10.80;99.90
8565;DHT22;4320;51.498;6.556;2022-11-23T09:33:07;10.80;99.90
8565;DHT22;4320;51.498;6.556;2022-11-23T09:35:33;10.90;99.90
8565;DHT22;4320;51.498;6.556;2022-11-23T09:37:59;11.00;99.90
8565;DHT22;4320;51.498;6.556;2022-11-23T09:40:32;11.40;99.90
8565;DHT22;4320;51.498;6.556;2022-11-23T09:43:27;12.30;99.90
8565;DHT22;4320;51.498;6.556;2022-11-23T09:46:02;13.40;99.90
8565;DHT22;4320;51.498;6.556;2022-11-23T09:51:19;14.80;99.90
8565;DHT22;4320;51.498;6.556;2022-11-23T09:54:00;15.50;99.90
8565;DHT22;4320;51.498;6.556;2022-11-23T09:56:29;16.10;99.90
8565;DHT22;4320;51.498;6.556;2022-11-23T09:58:59;16.10;99.90
8565;DHT22;4320;51.498;6.556;2022-11-23T10:01:25;15.60;99.90
8565;DHT22;4320;51.498;6.556;2022-11-23T10:03:52;14.80;99.90
8565;DHT22;4320;51.498;6.556;2022-11-23T10:06:21;14.40;99.90
8565;DHT22;4320;51.498;6.556;2022-11-23T10:09:38;14.90;99.90
8565;DHT22;4320;51.498;6.556;2022-11-23T10:15:00;15.30;98.90
8565;DHT22;4320;51.498;6.556;2022-11-23T10:23:02;14.10;93.50
8565;DHT22;4320;51.498;6.556;2022-11-23T10:25:39;14.50;92.70
8565;DHT22;4320;51.498;6.556;2022-11-23T10:28:13;15.00;90.50
8565;DHT22;4320;51.498;6.556;2022-11-23T10:30:39;15.50;87.00
8565;DHT22;4320;51.498;6.556;2022-11-23T10:33:29;16.00;75.80
8565;DHT22;4320;51.498;6.556;2022-11-23T10:35:55;16.30;60.70
8565;DHT22;4320;51.498;6.556;2022-11-23T10:38:25;16.20;53.60
8565;DHT22;4320;51.498;6.556;2022-11-23T10:41:11;16.20;46.80
8565;DHT22;4320;51.498;6.556;2022-11-23T10:44:08;16.50;41.60
8565;DHT22;4320;51.498;6.556;2022-11-23T10:46:37;16.60;34.10
8565;DHT22;4320;51.498;6.556;2022-11-23T10:49:30;16.40;22.90
8565;DHT22;4320;51.498;6.556;2022-11-23T10:52:01;16.00;17.20
8565;DHT22;4320;51.498;6.556;2022-11-23T10:54:47;15.70;14.00
8565;DHT22;4320;51.498;6.556;2022-11-23T10:57:31;15.40;11.40
8565;DHT22;4320;51.498;6.556;2022-11-23T11:00:25;14.90;9.50
8565;DHT22;4320;51.498;6.556;2022-11-23T11:02:53;14.00;11.40
8565;DHT22;4320;51.498;6.556;2022-11-23T11:05:49;13.80;13.60
8565;DHT22;4320;51.498;6.556;2022-11-23T11:08:19;14.10;18.10
8565;DHT22;4320;51.498;6.556;2022-11-23T11:11:05;14.50;20.10
8565;DHT22;4320;51.498;6.556;2022-11-23T11:16:05;15.10;14.10
8565;DHT22;4320;51.498;6.556;2022-11-23T11:18:33;14.90;10.90
8565;DHT22;4320;51.498;6.556;2022-11-23T11:21:18;14.20;11.30
8565;DHT22;4320;51.498;6.556;2022-11-23T11:23:53;14.40;12.60
8565;DHT22;4320;51.498;6.556;2022-11-23T11:26:24;14.40;12.20
8565;DHT22;4320;51.498;6.556;2022-11-23T11:28:52;14.20;13.40
8565;DHT22;4320;51.498;6.556;2022-11-23T11:34:15;13.60;16.50
8565;DHT22;4320;51.498;6.556;2022-11-23T11:36:49;13.60;16.40
8565;DHT22;4320;51.498;6.556;2022-11-23T11:39:26;13.30;16.90
8565;DHT22;4320;51.498;6.556;2022-11-23T11:41:54;13.40;18.70
8565;DHT22;4320;51.498;6.556;2022-11-23T11:44:23;13.60;18.10
8565;DHT22;4320;51.498;6.556;2022-11-23T11:46:55;13.60;16.60
8565;DHT22;4320;51.498;6.556;2022-11-23T11:49:40;13.50;15.80
8565;DHT22;4320;51.498;6.556;2022-11-23T11:52:13;13.40;16.10
8565;DHT22;4320;51.498;6.556;2022-11-23T12:00:00;12.70;21.20
8565;DHT22;4320;51.498;6.556;2022-11-23T12:07:59;12.60;28.30
8565;DHT22;4320;51.498;6.556;2022-11-23T12:10:33;12.60;29.80
8565;DHT22;4320;51.498;6.556;2022-11-23T12:13:01;12.70;30.50
8565;DHT22;4320;51.498;6.556;2022-11-23T12:15:38;12.50;30.70
8565;DHT22;4320;51.498;6.556;2022-11-23T12:21:44;12.40;35.50
8565;DHT22;4320;51.498;6.556;2022-11-23T12:29:48;12.10;39.60
8565;DHT22;4320;51.498;6.556;2022-11-23T13:00:22;12.00;42.90
8565;DHT22;4320;51.498;6.556;2022-11-23T13:16:42;11.80;48.90
8565;DHT22;4320;51.498;6.556;2022-11-23T13:19:47;11.80;50.20
8565;DHT22;4320;51.498;6.556;2022-11-23T13:22:17;11.80;51.70
8565;DHT22;4320;51.498;6.556;2022-11-23T13:30:29;11.80;59.30
8565;DHT22;4320;51.498;6.556;2022-11-23T13:35:55;11.80;58.70
8565;DHT22;4320;51.498;6.556;2022-11-23T13:38:28;11.70;58.50
8565;DHT22;4320;51.498;6.556;2022-11-23T13:40:59;11.60;57.70
8565;DHT22;4320;51.498;6.556;2022-11-23T13:43:28;11.60;57.70
8565;DHT22;4320;51.498;6.556;2022-11-23T13:46:11;11.60;57.60
8565;DHT22;4320;51.498;6.556;2022-11-23T13:48:45;11.60;58.20
8565;DHT22;4320;51.498;6.556;2022-11-23T13:51:11;11.60;61.60
8565;DHT22;4320;51.498;6.556;2022-11-23T13:53:41;11.40;58.10
8565;DHT22;4320;51.498;6.556;2022-11-23T13:56:35;11.40;57.30
8565;DHT22;4320;51.498;6.556;2022-11-23T14:04:33;11.30;61.00
8565;DHT22;4320;51.498;6.556;2022-11-23T14:09:56;11.30;60.10
8565;DHT22;4320;51.498;6.556;2022-11-23T14:12:41;11.30;58.90
8565;DHT22;4320;51.498;6.556;2022-11-23T14:15:31;11.20;58.90
8565;DHT22;4320;51.498;6.556;2022-11-23T14:43:15;11.20;63.70
8565;DHT22;4320;51.498;6.556;2022-11-23T14:45:45;11.20;61.40
8565;DHT22;4320;51.498;6.556;2022-11-23T14:48:22;11.20;63.20
8565;DHT22;4320;51.498;6.556;2022-11-23T14:51:18;11.20;63.90
8565;DHT22;4320;51.498;6.556;2022-11-23T14:53:46;11.20;63.70
8565;DHT22;4320;51.498;6.556;2022-11-23T14:56:34;11.20;63.50
8565;DHT22;4320;51.498;6.556;2022-11-23T14:59:06;11.20;65.30
8565;DHT22;4320;51.498;6.556;2022-11-23T15:01:33;11.30;66.80
8565;DHT22;4320;51.498;6.556;2022-11-23T15:04:20;11.30;66.00
8565;DHT22;4320;51.498;6.556;2022-11-23T15:06:47;11.30;65.70
8565;DHT22;4320;51.498;6.556;2022-11-23T15:09:48;11.30;66.50
8565;DHT22;4320;51.498;6.556;2022-11-23T15:12:27;11.20;66.50
8565;DHT22;4320;51.498;6.556;2022-11-23T15:14:55;11.20;67.80
8565;DHT22;4320;51.498;6.556;2022-11-23T15:17:25;11.20;70.60
8565;DHT22;4320;51.498;6.556;2022-11-23T15:20:01;11.10;83.30
8565;DHT22;4320;51.498;6.556;2022-11-23T15:22:28;10.90;94.40
8565;DHT22;4320;51.498;6.556;2022-11-23T15:25:06;10.80;99.90
8565;DHT22;4320;51.498;6.556;2022-11-23T15:27:37;10.60;99.90
8565;DHT22;4320;51.498;6.556;2022-11-23T15:30:17;10.50;99.90
8565;DHT22;4320;51.498;6.556;2022-11-23T15:32:43;10.50;99.90
8565;DHT22;4320;51.498;6.556;2022-11-23T15:35:13;10.30;99.90
8565;DHT22;4320;51.498;6.556;2022-11-23T15:37:45;10.20;99.90
8565;DHT22;4320;51.498;6.556;2022-11-23T15:40:16;10.20;99.90
8565;DHT22;4320;51.498;6.556;2022-11-23T15:42:43;10.10;99.90
8565;DHT22;4320;51.498;6.556;2022-11-23T15:48:12;10.00;99.90
8565;DHT22;4320;51.498;6.556;2022-11-23T15:50:59;10.00;99.90
8565;DHT22;4320;51.498;6.556;2022-11-23T15:53:46;10.00;99.90
8565;DHT22;4320;51.498;6.556;2022-11-23T15:56:34;9.90;99.90
8565;DHT22;4320;51.498;6.556;2022-11-23T15:59:17;9.90;99.90
8565;DHT22;4320;51.498;6.556;2022-11-23T16:01:44;9.80;99.90
8565;DHT22;4320;51.498;6.556;2022-11-23T16:06:50;9.70;1.00
8565;DHT22;4320;51.498;6.556;2022-11-23T16:09:38;9.70;1.00
8565;DHT22;4320;51.498;6.556;2022-11-23T16:14:45;9.70;1.00
8565;DHT22;4320;51.498;6.556;2022-11-23T16:17:20;9.60;1.00
8565;DHT22;4320;51.498;6.556;2022-11-23T16:19:50;9.60;1.00
8565;DHT22;4320;51.498;6.556;2022-11-23T16:22:34;9.60;1.00
8565;DHT22;4320;51.498;6.556;2022-11-23T16:27:45;9.50;1.00
8565;DHT22;4320;51.498;6.556;2022-11-23T16:30:26;9.50;1.00
8565;DHT22;4320;51.498;6.556;2022-11-23T16:32:52;9.50;1.00
8565;DHT22;4320;51.498;6.556;2022-11-23T16:35:19;9.40;1.00
8565;DHT22;4320;51.498;6.556;2022-11-23T16:37:45;9.50;1.00
8565;DHT22;4320;51.498;6.556;2022-11-23T16:40:12;9.40;1.00
8565;DHT22;4320;51.498;6.556;2022-11-23T16:42:38;9.50;1.00
8565;DHT22;4320;51.498;6.556;2022-11-23T16:45:05;9.40;1.00
8565;DHT22;4320;51.498;6.556;2022-11-23T16:47:31;9.30;1.00
8565;DHT22;4320;51.498;6.556;2022-11-23T16:49:58;9.30;1.00
8565;DHT22;4320;51.498;6.556;2022-11-23T16:52:24;9.30;1.00
8565;DHT22;4320;51.498;6.556;2022-11-23T16:54:50;9.30;1.00
8565;DHT22;4320;51.498;6.556;2022-11-23T16:57:29;9.30;1.00
8565;DHT22;4320;51.498;6.556;2022-11-23T16:59:57;9.20;1.00
8565;DHT22;4320;51.498;6.556;2022-11-23T17:02:23;9.20;1.00
8565;DHT22;4320;51.498;6.556;2022-11-23T17:04:49;9.10;1.00
8565;DHT22;4320;51.498;6.556;2022-11-23T17:07:15;9.10;1.00
8565;DHT22;4320;51.498;6.556;2022-11-23T17:09:41;9.00;1.00
8565;DHT22;4320;51.498;6.556;2022-11-23T17:12:16;9.00;1.00
8565;DHT22;4320;51.498;6.556;2022-11-23T17:14:44;9.00;1.00
8565;DHT22;4320;51.498;6.556;2022-11-23T17:17:18;9.00;1.00
8565;DHT22;4320;51.498;6.556;2022-11-23T17:19:45;9.00;1.00
8565;DHT22;4320;51.498;6.556;2022-11-23T17:22:13;9.00;1.00
8565;DHT22;4320;51.498;6.556;2022-11-23T17:24:40;9.00;1.00
8565;DHT22;4320;51.498;6.556;2022-11-23T17:27:06;9.00;1.00
8565;DHT22;4320;51.498;6.556;2022-11-23T17:29:31;8.90;1.00
8565;DHT22;4320;51.498;6.556;2022-11-23T17:31:57;9.00;1.00
8565;DHT22;4320;51.498;6.556;2022-11-23T17:34:22;9.00;1.00
8565;DHT22;4320;51.498;6.556;2022-11-23T17:36:49;8.90;1.00
8565;DHT22;4320;51.498;6.556;2022-11-23T17:39:19;8.90;1.00
8565;DHT22;4320;51.498;6.556;2022-11-23T17:41:45;9.00;1.00
8565;DHT22;4320;51.498;6.556;2022-11-23T17:44:12;9.00;1.00
8565;DHT22;4320;51.498;6.556;2022-11-23T17:46:38;8.90;1.00
8565;DHT22;4320;51.498;6.556;2022-11-23T17:49:03;8.90;1.00
8565;DHT22;4320;51.498;6.556;2022-11-23T17:51:32;8.90;1.00
8565;DHT22;4320;51.498;6.556;2022-11-23T17:53:58;8.90;1.00
8565;DHT22;4320;51.498;6.556;2022-11-23T17:56:24;8.80;1.00
8565;DHT22;4320;51.498;6.556;2022-11-23T17:58:50;8.90;1.00
8565;DHT22;4320;51.498;6.556;2022-11-23T18:01:18;8.80;1.00
8565;DHT22;4320;51.498;6.556;2022-11-23T18:03:44;8.80;1.00
8565;DHT22;4320;51.498;6.556;2022-11-23T18:06:16;8.80;1.00
8565;DHT22;4320;51.498;6.556;2022-11-23T18:08:43;8.80;1.00
8565;DHT22;4320;51.498;6.556;2022-11-23T18:11:09;8.80;1.00
8565;DHT22;4320;51.498;6.556;2022-11-23T18:13:35;8.80;1.00
8565;DHT22;4320;51.498;6.556;2022-11-23T18:16:01;8.80;1.00
8565;DHT22;4320;51.498;6.556;2022-11-23T18:18:27;8.80;1.00
8565;DHT22;4320;51.498;6.556;2022-11-23T18:20:53;8.80;1.00
8565;DHT22;4320;51.498;6.556;2022-11-23T18:23:19;8.80;1.00
8565;DHT22;4320;51.498;6.556;2022-11-23T18:25:45;8.70;1.00
8565;DHT22;4320;51.498;6.556;2022-11-23T18:28:11;8.70;1.00
8565;DHT22;4320;51.498;6.556;2022-11-23T18:30:36;8.70;1.00
8565;DHT22;4320;51.498;6.556;2022-11-23T18:33:02;8.80;1.00
8565;DHT22;4320;51.498;6.556;2022-11-23T18:35:28;8.80;1.00
8565;DHT22;4320;51.498;6.556;2022-11-23T18:37:54;8.80;1.00
8565;DHT22;4320;51.498;6.556;2022-11-23T18:40:20;8.80;1.00
8565;DHT22;4320;51.498;6.556;2022-11-23T18:42:46;8.80;1.00